Weather observations for the past three days for
Plant City, Plant City Municipal Airport
Metric (Imperial)
Date Time (edt) Wind (kph) Vis. (km) Weather Sky Cond. Temperature (ºC) Relative Humidity Wind Chill (°C) Heat Index (°C) Pressure Precipitation (cm)
Air Dwpt 6 hour altimeter (cm) sea level (mb) 1 hr 3 hr 6 hr
Max. Min.
07 02:55 Calm 11.27 Fair CLR 21.7 21.7 100% 76.17 0.0
07 02:35 Calm 14.48 Fair CLR 21.6 21.6 100% 76.17 0.0
07 02:15 SE 6 12.87 Fair CLR 21.7 21.7 100% 76.2 0.0
07 01:55 Calm 14.48 Fair CLR 21.8 21.8 28 21.8 100% 76.23 0.0
07 01:35 Calm 16.09 Fair CLR 22.3 22.3 100% 76.23 0.0
07 01:15 Calm 16.09 Fair CLR 22.5 22.4 99% 76.25 0.0
07 00:55 N 6 16.09 Fair CLR 23.4 22.7 96% 76.25 0.0
07 00:35 N 6 16.09 Fair CLR 23.4 22.7 96% 76.28 0.0
07 00:15 NW 6 16.09 Fair CLR 23.6 22.5 94% 76.28 0.0
06 23:55 N 7 16.09 Fair CLR 24 22.4 91% 24 76.28 0.0
06 23:35 NW 6 16.09 Fair CLR 24.2 22.3 89% 24 76.28 0.0
06 23:15 N 6 16.09 Fair CLR 24.5 22.2 87% 25 76.25 0.0
06 22:55 N 7 16.09 Fair CLR 24.8 22.3 86% 25 76.25 0.0
06 22:35 N 7 16.09 Fair CLR 24.7 22.1 86% 25 76.25 0.0
06 22:15 W 6 16.09 Fair CLR 25.4 22.2 83% 27 76.25 0.0
06 21:55 Calm 16.09 Fair CLR 26 21.2 75% 27 76.23 0.0
06 21:35 SW 6 16.09 Fair CLR 26.2 21 73% 28 76.23 0.0
06 21:15 SW 7 16.09 Fair CLR 26.5 20.5 70% 28 76.23 0.0
06 20:55 W 7 16.09 Fair CLR 26.8 19.8 66% 28 76.23 0.0
06 20:35 SW 11 16.09 Fair CLR 27 20 66% 29 76.2 0.0
06 20:15 SW 11 16.09 Fair CLR 27.6 20.8 67% 30 76.17 0.0
06 19:55 SW 13 14.48 Fair CLR 28.5 21.8 34 28.5 67% 31 76.17 0.0
06 19:35 SW 13 14.48 Fair CLR 29.1 22.1 66% 32 76.15 0.0
06 19:15 SW 15 16.09 Fair CLR 29.8 21.9 63% 33 76.15 0.0
06 18:55 SW 15 14.48 Fair CLR 30.7 21.9 59% 34 76.15 0.0
06 18:35 SW 17 14.48 A Few Clouds FEW070 31.4 21.6 56% 35 76.15 0.0
06 18:15 SW 17 16.09 A Few Clouds FEW070 32 20.5 51% 35 76.15 0.0
06 17:55 SW 15 16.09 Fair CLR 32.5 19.8 47% 35 76.15 0.0
06 17:35 SW 13 16.09 Fair CLR 32.7 19.8 47% 35 76.15 0.0
06 17:15 SW 7 16.09 Partly Cloudy SCT070 32.5 19.7 47% 34 76.15 0.0
06 16:55 W 7 16.09 A Few Clouds FEW070 33.7 16.9 37% 34 76.15 0.0
06 16:35 Calm 16.09 Fair CLR 32.9 16.7 38% 33 76.15 0.0
06 16:15 Vrbl 7 16.09 Fair CLR 33.1 17.1 38% 34 76.17 0.0
06 15:55 S 13 16.09 Fair CLR 32.8 16.9 39% 33 76.15 0.0
06 15:35 E 11 16.09 A Few Clouds FEW065 32.9 16.9 38% 33 76.17 0.0
06 15:15 Vrbl 6 16.09 Fair CLR 33 16.9 38% 33 76.2 0.0
06 14:55 Vrbl 9 16.09 Fair CLR 32.3 17 40% 33 76.23 0.0
06 14:35 Vrbl 7 16.09 Fair CLR 32.1 17.6 42% 33 76.25 0.0
06 14:15 Vrbl 11 16.09 A Few Clouds FEW350 31.9 17.4 42% 32 76.25 0.0
06 13:55 Vrbl 9 16.09 A Few Clouds FEW055 31.8 17.9 32 21.3 43% 33 76.28 0.0
06 13:35 NE 7 16.09 A Few Clouds FEW300 31.3 17.7 44% 32 76.3 0.0
06 13:15 S 13 16.09 A Few Clouds FEW360 31.4 17.7 44% 32 76.3 0.0
06 12:55 E 9 16.09 Fair CLR 30.6 18.5 48% 32 76.3 0.0
06 12:35 SE 15 16.09 Fair CLR 30.4 19.1 51% 32 76.33 0.0
06 12:15 SE 13 16.09 Fair CLR 30.5 18.7 49% 32 76.33 0.0
06 11:55 S 17 16.09 A Few Clouds FEW370 29.6 18.8 52% 31 76.33 0.0
06 11:35 SE 15 16.09 A Few Clouds FEW340 29.5 19.1 54% 31 76.33 0.0
06 11:15 SE 15 16.09 Fair CLR 28.8 19.1 56% 30 76.33 0.0
06 10:55 SE 11 14.48 Fair CLR 28.2 21 65% 30 76.33 0.0
06 10:35 SE 11 16.09 Fair CLR 27.6 21 67% 30 76.33 0.0
06 10:15 SE 15 16.09 Fair CLR 26.8 21.2 71% 29 76.35 0.0
06 09:55 S 11 16.09 Fair CLR 26.4 21.8 76% 28 76.35 0.0
06 09:35 S 13 14.48 Fair CLR 25.9 21.9 79% 27 76.33 0.0
06 09:15 SE 11 16.09 Fair CLR 24.6 21.6 83% 25 76.33 0.0
06 08:55 SE 13 16.09 Fair CLR 23.4 21.2 88% 76.3 0.0
06 08:15 SE 13 14.48 Fair CLR 22 20.6 92% 76.3 0.0
06 07:55 SE 9 12.87 Fair CLR 20.9 20 20.9 18.9 95% 76.28 0.0
06 07:35 SE 9 12.87 Fair CLR 20 19.5 97% 76.28 0.0
06 07:15 SE 6 12.87 Fair CLR 19.2 18.7 97% 76.25 0.0
06 06:55 SE 9 12.87 Fair CLR 19.4 18.7 96% 76.23 0.0
06 06:35 SE 7 12.87 Fair CLR 18.9 18.2 96% 76.23 0.0
06 06:15 SE 9 16.09 Fair CLR 19.2 18.2 94% 76.23 0.0
06 05:55 E 6 16.09 Fair CLR 19.2 18 93% 76.23 0.0
06 05:35 E 6 14.48 Fair CLR 19.1 17.9 93% 76.23 0.0
06 05:15 SE 6 16.09 Fair CLR 19.4 17.7 90% 76.2 0.0
06 04:55 SE 9 16.09 Fair CLR 19.3 17.5 89% 76.2 0.0
06 04:35 SE 9 16.09 Fair CLR 19.3 17.3 88% 76.2 0.0
06 04:15 SE 9 16.09 Fair CLR 19.9 17.3 85% 76.23 0.0
06 03:55 SE 6 16.09 Fair CLR 19.7 17 85% 76.23 0.0
06 03:35 E 7 16.09 Fair CLR 19.3 16.9 86% 76.23 0.0
06 03:15 SE 6 16.09 Fair CLR 19.8 16.8 83% 76.23 0.0
06 02:55 SE 6 16.09 Fair CLR 20.2 16.6 80% 76.23 0.0
06 01:55 Calm 16.09 Fair CLR 20.7 16.5 27.9 20.5 77% 76.28 0.0
06 01:35 SE 6 16.09 Fair CLR 20.7 16.4 77% 76.28 0.0
06 01:15 E 6 16.09 Fair CLR 21 16.1 74% 76.3 0.0
06 00:55 SE 6 14.48 Fair CLR 21.4 15.9 71% 76.3 0.0
06 00:35 E 6 16.09 Fair CLR 21.5 15.9 71% 76.3 0.0
06 00:15 E 9 16.09 Fair CLR 22.1 15.7 67% 76.3 0.0
05 23:55 E 11 14.48 Fair CLR 22.5 15.6 65% 76.3 0.0
05 23:35 SE 13 16.09 Fair CLR 22.8 15.6 64% 76.3 0.0
05 23:15 SE 13 16.09 Fair CLR 23.2 15.5 62% 76.3 0.0
05 22:55 SE 13 16.09 Fair CLR 23.5 15.5 61% 76.28 0.0
05 22:35 E 11 16.09 A Few Clouds FEW050 23.5 15.5 61% 76.28 0.0
05 22:15 SE 13 16.09 Partly Cloudy SCT048 24.3 15.3 57% 25 76.28 0.0
05 21:55 SE 17 16.09 Mostly Cloudy BKN045 BKN060 25 15.8 57% 26 76.25 0.0
05 21:35 E 11 16.09 Overcast BKN045 OVC055 25.2 16.1 57% 26 76.23 0.0
05 21:15 E 7 16.09 Overcast BKN045 OVC055 25.5 16.3 57% 26 76.2 0.0
05 20:55 E 15 16.09 Mostly Cloudy SCT038 BKN050 26.1 16.6 56% 27 76.17 0.0
05 20:35 NW 9 16.09 Partly Cloudy SCT070 26.2 18.3 62% 27 76.15 0.0
05 20:15 NW 11 14.48 Mostly Cloudy BKN070 BKN080 26.8 18.2 59% 28 76.12 0.0
05 19:55 SE 7 16.09 Partly Cloudy SCT070 SCT085 28.1 15 30.8 28.1 45% 28 76.1 0.0
05 19:35 SE 11 16.09 Partly Cloudy SCT070 28.6 14.9 43% 28 76.1 0.0
05 19:15 NE 6 16.09 Fair CLR 29.1 14 40% 29 76.07 0.0
05 18:55 Calm 16.09 A Few Clouds FEW070 29.9 13.9 38% 29 76.1 0.0
05 18:35 Calm 16.09 Partly Cloudy SCT070 29.7 13.8 38% 29 76.1 0.0
05 18:15 Calm 16.09 A Few Clouds FEW085 29.4 13.9 39% 29 76.1 0.0
05 17:55 NE 6 16.09 Overcast OVC080 29.6 13.5 37% 29 76.1 0.0
05 17:35 Vrbl 6 16.09 Overcast OVC075 29.9 14 38% 29 76.1 0.0
05 17:15 E 7 16.09 Partly Cloudy SCT075 30.2 13.9 37% 30 76.07 0.0
05 16:55 Vrbl 6 16.09 A Few Clouds FEW330 30.3 13.8 36% 30 76.07 0.0
05 16:35 E 7 16.09 A Few Clouds FEW075 29.9 13.8 37% 29 76.1 0.0
05 16:15 E 9 16.09 Mostly Cloudy BKN075 29.8 14.8 40% 29 76.12 0.0
05 15:55 Vrbl 7 16.09 A Few Clouds FEW075 30 14.3 38% 30 76.12 0.0
05 15:35 NE 11 16.09 Fair CLR 29.9 14 38% 29 76.12 0.0
05 15:15 SE 17 16.09 Mostly Cloudy FEW060 BKN080 30.3 15.4 40% 30 76.15 0.0
05 14:55 NE 15 16.09 Partly Cloudy FEW060 SCT370 29.8 14.8 40% 29 76.17 0.0
05 14:35 SE 7 16.09 Partly Cloudy SCT070 29.3 15.2 42% 29 76.17 0.0
05 14:15 E 11 16.09 Partly Cloudy SCT060 28.7 15.5 45% 29 76.2 0.0
05 13:55 NE 13 G 26 14.48 A Few Clouds FEW050 29.1 15.6 29.2 19.7 44% 29 76.23 0.0
05 13:35 E 9 16.09 Mostly Cloudy BKN055 BKN065 27.7 15.6 48% 28 76.23 0.0
05 13:15 E 6 16.09 Mostly Cloudy SCT048 BKN060 27.3 15.8 49% 28 76.25 0.0
05 12:55 E 17 16.09 A Few Clouds FEW047 27.9 16.5 50% 28 76.25 0.0
05 12:35 NE 11 16.09 Mostly Cloudy SCT047 BKN060 28.1 16.7 50% 29 76.25 0.0
05 12:15 E 13 16.09 Mostly Cloudy SCT042 BKN055 27.8 16.6 51% 28 76.28 0.0
05 11:55 SE 9 16.09 Mostly Cloudy SCT042 BKN055 26.6 16.8 55% 27 76.28 0.0
05 11:35 E 11 16.09 Mostly Cloudy BKN049 27.4 17 53% 28 76.28 0.0
05 11:15 Vrbl 9 16.09 Mostly Cloudy FEW037 BKN046 27.1 17.1 54% 28 76.28 0.0
05 10:55 NE 15 16.09 A Few Clouds FEW046 26 17.2 58% 27 76.28 0.0
05 10:35 E 20 16.09 Partly Cloudy FEW047 SCT055 26.2 17 57% 27 76.28 0.0
05 10:15 E 19 16.09 Overcast OVC055 25.1 17.1 61% 26 76.25 0.0
05 09:55 E 15 16.09 Mostly Cloudy BKN055 24.4 17.6 66% 25 76.25 0.0
05 09:35 E 19 16.09 Mostly Cloudy BKN055 23.9 17.6 68% 25 76.25 0.0
05 09:15 E 15 16.09 Overcast OVC055 23.1 17.9 73% 76.23 0.0
05 08:55 E 11 16.09 Overcast OVC055 21.9 18.3 80% 76.23 0.0
05 08:35 E 9 16.09 Overcast OVC055 21.2 18.5 85% 76.23 0.0
05 08:15 E 9 16.09 Overcast OVC050 20.3 18.4 89% 76.25 0.0
05 07:55 NE 7 14.48 A Few Clouds FEW050 19.3 18.2 19.9 17.7 93% 76.23 0.0
05 07:35 NE 7 12.87 Fair CLR 18.7 17.9 95% 76.2 0.0
05 07:15 E 6 14.48 Fair CLR 18.3 17.5 95% 76.17 0.0
05 06:55 NE 7 14.48 A Few Clouds FEW050 18.1 17.4 96% 76.15 0.0
05 06:35 NE 6 16.09 A Few Clouds FEW050 17.8 17.1 96% 76.15 0.0
05 06:15 NE 6 16.09 Fair CLR 18.1 17.2 95% 76.15 0.0
05 05:55 Calm 16.09 Fair CLR 18.8 17.6 93% 76.15 0.0
05 05:35 NE 7 16.09 Fair CLR 18.9 17.5 92% 76.12 0.0
05 05:15 NE 9 16.09 Fair CLR 18.7 17.4 92% 76.12 0.0
05 04:55 E 7 16.09 Fair CLR 18.9 17.4 91% 76.12 0.0
05 04:35 E 7 16.09 Fair CLR 18.7 17.3 92% 76.1 0.0
05 04:15 E 6 16.09 Fair CLR 19.1 17.2 89% 76.1 0.0
05 03:55 E 9 14.48 Fair CLR 19.3 17.2 88% 76.1 0.0
05 03:35 E 7 14.48 Fair CLR 19.5 17.1 86% 76.12 0.0
05 03:15 E 7 14.48 Fair CLR 19.5 17 86% 76.12 0.0
05 02:55 E 9 14.48 Fair CLR 19.6 16.9 85% 76.15 0.0
05 02:35 E 7 14.48 Fair CLR 19.8 16.9 83% 76.15 0.0
05 02:15 E 7 14.48 Fair CLR 19.9 16.9 83% 76.17 0.0
05 01:55 E 7 14.48 Fair CLR 20 16.7 24.2 20 81% 76.2 0.0
05 01:35 E 6 14.48 Fair CLR 20.2 16.6 80% 76.2 0.0
05 01:15 E 7 14.48 Fair CLR 20.5 16.7 79% 76.23 0.0
05 00:55 E 9 14.48 A Few Clouds FEW060 20.6 16.6 78% 76.23 0.0
05 00:35 E 9 14.48 Partly Cloudy SCT060 20.7 16.5 77% 76.23 0.0
05 00:15 E 7 16.09 A Few Clouds FEW055 21 16.4 75% 76.25 0.0
04 23:55 E 9 14.48 Fair CLR 21.1 16.3 74% 76.25 0.0
04 23:35 E 13 14.48 Fair CLR 21.2 16.2 73% 76.25 0.0
04 23:15 E 9 16.09 Fair CLR 21.5 16.1 71% 76.25 0.0
04 22:55 E 13 16.09 Fair CLR 21.7 15.8 69% 76.25 0.0
04 22:35 E 13 16.09 Fair CLR 22 15.7 68% 76.25 0.0
04 22:15 E 11 16.09 Fair CLR 22 15.7 68% 76.23 0.0
04 21:55 E 15 14.48 Fair CLR 22.4 15.7 66% 76.2 0.0
04 21:35 E 11 16.09 Fair CLR 22.6 15.6 65% 76.2 0.0
04 21:15 E 17 16.09 Fair CLR 22.9 15.6 64% 76.17 0.0
04 20:55 E 11 14.48 Fair CLR 23.2 15.7 63% 76.15 0.0
04 20:35 E 17 16.09 Fair CLR 23.6 15.6 61% 76.15 0.0
04 20:15 E 11 14.48 A Few Clouds FEW060 23.9 15.7 60% 25 76.15 0.0
04 19:55 E 17 G 30 14.48 Partly Cloudy SCT060 24.5 15.7 29 24.5 58% 26 76.1 0.0
04 19:35 E 15 16.09 A Few Clouds FEW080 25 15.6 56% 26 76.1 0.0
04 19:15 E 15 G 26 14.48 Mostly Cloudy BKN080 25.5 15.6 54% 26 76.07 0.0
04 18:55 E 22 G 30 14.48 Mostly Cloudy BKN065 BKN080 26.4 15.5 51% 27 76.07 0.0
04 18:35 E 17 12.87 Mostly Cloudy SCT055 BKN070 26.2 15.3 51% 27 76.07 0.0
04 18:15 E 11 14.48 Partly Cloudy SCT065 SCT085 26.8 15.3 49% 27 76.07 0.0
04 17:55 SE 15 14.48 A Few Clouds FEW050 27.7 14.8 45% 28 76.07 0.0
04 17:35 E 20 16.09 Partly Cloudy SCT065 27.7 15.2 47% 28 76.07 0.0
04 17:15 E 15 14.48 Partly Cloudy FEW055 SCT075 28.2 14.3 43% 28 76.07 0.0
04 16:55 NE 24 G 35 16.09 Partly Cloudy SCT055 SCT070 28.4 14.6 43% 28 76.07 0.0
04 16:35 NE 17 G 28 16.09 Partly Cloudy SCT060 SCT075 28.7 14.2 41% 28 76.07 0.0
04 16:15 E 15 16.09 Mostly Cloudy SCT060 BKN075 27.8 13.9 43% 28 76.1 0.0
04 15:55 NE 11 16.09 Partly Cloudy SCT060 28.5 13.6 40% 28 76.12 0.0
04 15:35 Vrbl 7 16.09 Partly Cloudy SCT060 27.8 13 40% 27 76.15 0.0
04 15:15 Calm 16.09 Partly Cloudy SCT060 SCT250 27.7 12.5 39% 27 76.15 0.0
04 14:55 NE 13 14.48 Partly Cloudy SCT060 SCT370 27.7 12.7 40% 27 76.17 0.0
04 14:35 Vrbl 7 16.09 Fair CLR 27.5 12.3 39% 27 76.2 0.0
04 14:15 NE 20 G 28 14.48 A Few Clouds FEW060 27.8 12.4 39% 27 76.23 0.0
04 13:55 E 17 16.09 Mostly Cloudy BKN060 BKN360 27.3 12.4 27.9 18.4 40% 27 76.25 0.0
04 13:35 NE 15 G 26 16.09 Mostly Cloudy BKN060 27 13 42% 27 76.28 0.0
04 13:15 NE 19 16.09 Partly Cloudy SCT060 27.3 12.7 40% 27 76.28 0.0
04 12:55 Vrbl 9 16.09 A Few Clouds FEW055 26.8 12.7 42% 27 76.3 0.0
04 12:35 NE 15 16.09 A Few Clouds FEW055 26.5 12.7 42% 27 76.3 0.0
04 12:15 E 15 16.09 A Few Clouds FEW050 26.7 12.7 42% 27 76.33 0.0
04 11:55 NE 19 14.48 A Few Clouds FEW050 25.9 12.8 44% 26 76.35 0.0
04 11:35 E 17 14.48 Fair CLR 26 12.7 44% 26 76.35 0.0
04 11:15 NE 13 14.48 Fair CLR 25.7 12.1 43% 26 76.35 0.0
04 10:55 NE 20 16.09 Fair CLR 24.9 11.7 44% 26 76.35 0.0
04 10:35 NE 22 16.09 Fair CLR 24.8 12.1 45% 26 76.35 0.0
04 10:15 NE 26 16.09 Fair CLR 24.2 13.6 52% 25 76.33 0.0
04 09:55 NE 15 14.48 Fair CLR 23.6 14.9 58% 76.35 0.0
04 09:35 NE 24 16.09 Fair CLR 22.9 14.7 60% 76.33 0.0
04 09:15 NE 17 14.48 Fair CLR 22.1 15.3 65% 76.33 0.0
04 08:55 NE 19 16.09 Fair CLR 20.6 15.1 71% 76.3 0.0
04 08:35 NE 19 14.48 Fair CLR 20.1 14.9 72% 76.3 0.0
04 08:15 NE 9 14.48 Fair CLR 19.2 15 77% 76.3 0.0
04 07:55 NE 11 14.48 Fair CLR 17.8 15.2 19 16.2 85% 76.28 0.0
04 07:35 NE 7 12.87 Fair CLR 17.2 15.1 88% 76.28 0.0
04 07:15 N 9 12.87 Fair CLR 17.1 14.8 86% 76.25 0.0
04 06:55 NE 7 14.48 Fair CLR 16.2 14.9 92% 76.25 0.0
04 06:35 N 9 14.48 Fair CLR 16.3 14.9 91% 76.25 0.0
04 06:15 N 9 16.09 Fair CLR 16.5 15 91% 76.25 0.0
04 05:55 N 11 16.09 Fair CLR 16.4 15.1 92% 76.23 0.0
04 05:35 N 7 14.48 Fair CLR 16.4 15.2 93% 76.23 0.0
04 05:15 N 9 14.48 Fair CLR 16.5 15.3 93% 76.23 0.0
04 04:55 N 7 14.48 Fair CLR 16.8 15.3 91% 76.23 0.0
04 04:35 N 7 14.48 A Few Clouds FEW160 17.1 15.5 90% 76.23 0.0
04 04:15 N 7 16.09 Partly Cloudy SCT150 17.4 15.4 88% 76.23 0.0
04 03:55 NE 7 16.09 Overcast OVC150 17.8 15.5 87% 76.23 0.0
04 03:35 N 9 16.09 Overcast OVC150 18 15.6 86% 76.25 0.0
04 03:15 N 6 16.09 Overcast BKN160 OVC180 18.1 15.7 86% 76.25 0.0
Date Time (edt) Wind (kph) Vis. (km) Weather Sky Cond. Air Dwpt Max. Min. Relative Humidity Wind Chill (°C) Heat Index (°C) altimeter (cm) sea level (mb) 1 hr 3 hr 6 hr
6 hour
Temperature (ºC) Pressure Precipitation (cm)